Terminal Aerodrome Forecast
Issued by NWS

Home | Current Version | Previous Version | Text Only | Print | Product List | Glossary On
Versions: 1 2 3 4 5 6 7 8 9 10 11 12 13 14 15 16 17 18 19 20 21 22 23 24 25
000
FTUS46 KPDT 280529
TAFALW
TAF
KALW 280529Z 2806/0106 20015KT P6SM -SHRA SCT015 OVC050
     FM280800 20011KT 4SM -SHSN BR SCT006 OVC020
     FM281500 22011G20KT P6SM BKN050
     FM010400 23011KT P6SM BKN060=

USA.gov is the U.S. government's official web portal to all federal, state and local government web resources and services.